sensor_id;sensor_type;location;lat;lon;timestamp;P1;durP1;ratioP1;P2;durP2;ratioP2
75261;SDS011;63859;51.064;4.580;2024-01-15T00:01:16;20.37;;;9.20;;
75261;SDS011;63859;51.064;4.580;2024-01-15T00:03:42;23.00;;;9.80;;
75261;SDS011;63859;51.064;4.580;2024-01-15T00:06:07;25.20;;;10.80;;
75261;SDS011;63859;51.064;4.580;2024-01-15T00:08:33;26.77;;;10.13;;
75261;SDS011;63859;51.064;4.580;2024-01-15T00:10:59;22.63;;;10.40;;
75261;SDS011;63859;51.064;4.580;2024-01-15T00:13:24;21.37;;;9.47;;
75261;SDS011;63859;51.064;4.580;2024-01-15T00:15:50;21.77;;;9.47;;
75261;SDS011;63859;51.064;4.580;2024-01-15T00:18:16;26.53;;;8.57;;
75261;SDS011;63859;51.064;4.580;2024-01-15T00:20:41;18.80;;;9.37;;
75261;SDS011;63859;51.064;4.580;2024-01-15T00:23:07;26.73;;;9.73;;
75261;SDS011;63859;51.064;4.580;2024-01-15T00:25:33;21.17;;;9.60;;
75261;SDS011;63859;51.064;4.580;2024-01-15T00:27:58;18.33;;;8.43;;
75261;SDS011;63859;51.064;4.580;2024-01-15T00:30:24;21.80;;;10.40;;
75261;SDS011;63859;51.064;4.580;2024-01-15T00:32:50;23.10;;;9.67;;
75261;SDS011;63859;51.064;4.580;2024-01-15T00:35:15;21.13;;;10.03;;
75261;SDS011;63859;51.064;4.580;2024-01-15T00:37:41;24.13;;;10.10;;
75261;SDS011;63859;51.064;4.580;2024-01-15T00:40:07;26.17;;;10.73;;
75261;SDS011;63859;51.064;4.580;2024-01-15T00:42:33;21.47;;;9.63;;
75261;SDS011;63859;51.064;4.580;2024-01-15T00:44:59;24.33;;;10.97;;
75261;SDS011;63859;51.064;4.580;2024-01-15T00:47:25;23.10;;;10.67;;
75261;SDS011;63859;51.064;4.580;2024-01-15T00:49:50;20.43;;;9.50;;
75261;SDS011;63859;51.064;4.580;2024-01-15T00:52:16;27.73;;;10.47;;
75261;SDS011;63859;51.064;4.580;2024-01-15T00:54:42;20.13;;;10.33;;
75261;SDS011;63859;51.064;4.580;2024-01-15T00:57:07;23.10;;;10.60;;
75261;SDS011;63859;51.064;4.580;2024-01-15T00:59:33;20.93;;;10.90;;
75261;SDS011;63859;51.064;4.580;2024-01-15T01:01:58;25.03;;;11.47;;
75261;SDS011;63859;51.064;4.580;2024-01-15T01:04:24;22.87;;;10.20;;
75261;SDS011;63859;51.064;4.580;2024-01-15T01:06:50;23.57;;;10.93;;
75261;SDS011;63859;51.064;4.580;2024-01-15T01:09:15;24.23;;;10.47;;
75261;SDS011;63859;51.064;4.580;2024-01-15T01:11:41;23.13;;;11.27;;
75261;SDS011;63859;51.064;4.580;2024-01-15T01:14:07;21.27;;;10.50;;
75261;SDS011;63859;51.064;4.580;2024-01-15T01:16:32;24.13;;;10.43;;
75261;SDS011;63859;51.064;4.580;2024-01-15T01:19:04;19.03;;;8.80;;
75261;SDS011;63859;51.064;4.580;2024-01-15T01:21:31;19.00;;;8.83;;
75261;SDS011;63859;51.064;4.580;2024-01-15T01:23:56;20.93;;;9.70;;
75261;SDS011;63859;51.064;4.580;2024-01-15T01:26:22;23.77;;;9.90;;
75261;SDS011;63859;51.064;4.580;2024-01-15T01:28:47;22.07;;;10.07;;
75261;SDS011;63859;51.064;4.580;2024-01-15T01:31:13;22.83;;;10.60;;
75261;SDS011;63859;51.064;4.580;2024-01-15T01:33:39;22.40;;;10.60;;
75261;SDS011;63859;51.064;4.580;2024-01-15T01:36:09;20.10;;;10.10;;
75261;SDS011;63859;51.064;4.580;2024-01-15T01:38:35;18.13;;;9.83;;
75261;SDS011;63859;51.064;4.580;2024-01-15T01:41:01;23.27;;;10.50;;
75261;SDS011;63859;51.064;4.580;2024-01-15T01:43:27;23.90;;;11.40;;
75261;SDS011;63859;51.064;4.580;2024-01-15T01:45:54;28.83;;;11.23;;
75261;SDS011;63859;51.064;4.580;2024-01-15T01:48:23;20.57;;;10.27;;
75261;SDS011;63859;51.064;4.580;2024-01-15T01:50:51;25.60;;;11.23;;
75261;SDS011;63859;51.064;4.580;2024-01-15T01:53:19;23.97;;;11.53;;
75261;SDS011;63859;51.064;4.580;2024-01-15T01:55:44;22.43;;;11.07;;
75261;SDS011;63859;51.064;4.580;2024-01-15T01:58:11;20.20;;;9.80;;
75261;SDS011;63859;51.064;4.580;2024-01-15T02:00:36;23.07;;;9.87;;
75261;SDS011;63859;51.064;4.580;2024-01-15T02:03:03;27.83;;;10.77;;
75261;SDS011;63859;51.064;4.580;2024-01-15T02:05:29;14.87;;;7.53;;
75261;SDS011;63859;51.064;4.580;2024-01-15T02:07:56;13.87;;;8.40;;
75261;SDS011;63859;51.064;4.580;2024-01-15T02:10:22;17.93;;;8.57;;
75261;SDS011;63859;51.064;4.580;2024-01-15T02:12:47;17.57;;;8.17;;
75261;SDS011;63859;51.064;4.580;2024-01-15T02:15:13;14.30;;;7.17;;
75261;SDS011;63859;51.064;4.580;2024-01-15T02:20:24;16.87;;;6.10;;
75261;SDS011;63859;51.064;4.580;2024-01-15T02:22:51;13.00;;;6.17;;
75261;SDS011;63859;51.064;4.580;2024-01-15T02:25:16;16.23;;;5.40;;
75261;SDS011;63859;51.064;4.580;2024-01-15T02:27:43;9.90;;;5.50;;
75261;SDS011;63859;51.064;4.580;2024-01-15T02:30:10;11.73;;;4.53;;
75261;SDS011;63859;51.064;4.580;2024-01-15T02:32:37;10.67;;;4.90;;
75261;SDS011;63859;51.064;4.580;2024-01-15T02:35:03;9.50;;;4.70;;
75261;SDS011;63859;51.064;4.580;2024-01-15T02:37:29;12.03;;;4.67;;
75261;SDS011;63859;51.064;4.580;2024-01-15T02:39:54;6.23;;;3.07;;
75261;SDS011;63859;51.064;4.580;2024-01-15T02:42:20;13.33;;;4.00;;
75261;SDS011;63859;51.064;4.580;2024-01-15T02:44:46;9.43;;;4.13;;
75261;SDS011;63859;51.064;4.580;2024-01-15T02:47:13;9.97;;;3.90;;
75261;SDS011;63859;51.064;4.580;2024-01-15T02:49:39;8.20;;;3.70;;
75261;SDS011;63859;51.064;4.580;2024-01-15T02:52:05;11.90;;;3.63;;
75261;SDS011;63859;51.064;4.580;2024-01-15T02:54:31;8.40;;;3.60;;
75261;SDS011;63859;51.064;4.580;2024-01-15T02:56:56;10.23;;;3.43;;
75261;SDS011;63859;51.064;4.580;2024-01-15T02:59:22;12.10;;;3.53;;
75261;SDS011;63859;51.064;4.580;2024-01-15T03:01:48;9.73;;;3.53;;
75261;SDS011;63859;51.064;4.580;2024-01-15T03:04:13;9.10;;;3.50;;
75261;SDS011;63859;51.064;4.580;2024-01-15T03:06:39;6.10;;;3.90;;
75261;SDS011;63859;51.064;4.580;2024-01-15T03:09:05;13.47;;;4.53;;
75261;SDS011;63859;51.064;4.580;2024-01-15T03:11:36;7.80;;;3.70;;
75261;SDS011;63859;51.064;4.580;2024-01-15T03:14:03;7.37;;;4.23;;
75261;SDS011;63859;51.064;4.580;2024-01-15T03:16:28;9.53;;;3.97;;
75261;SDS011;63859;51.064;4.580;2024-01-15T03:18:54;4.17;;;3.20;;
75261;SDS011;63859;51.064;4.580;2024-01-15T03:21:19;7.07;;;4.40;;
75261;SDS011;63859;51.064;4.580;2024-01-15T03:23:45;10.77;;;3.60;;
75261;SDS011;63859;51.064;4.580;2024-01-15T03:26:11;5.67;;;3.70;;
75261;SDS011;63859;51.064;4.580;2024-01-15T03:28:36;7.20;;;4.10;;
75261;SDS011;63859;51.064;4.580;2024-01-15T03:31:02;14.00;;;4.20;;
75261;SDS011;63859;51.064;4.580;2024-01-15T03:33:28;13.63;;;5.00;;
75261;SDS011;63859;51.064;4.580;2024-01-15T03:35:53;7.67;;;4.57;;
75261;SDS011;63859;51.064;4.580;2024-01-15T03:38:19;12.83;;;4.93;;
75261;SDS011;63859;51.064;4.580;2024-01-15T03:40:45;12.83;;;5.60;;
75261;SDS011;63859;51.064;4.580;2024-01-15T03:43:11;9.43;;;4.67;;
75261;SDS011;63859;51.064;4.580;2024-01-15T03:45:37;10.97;;;4.97;;
75261;SDS011;63859;51.064;4.580;2024-01-15T03:48:03;11.43;;;5.07;;
75261;SDS011;63859;51.064;4.580;2024-01-15T03:50:29;10.70;;;5.53;;
75261;SDS011;63859;51.064;4.580;2024-01-15T03:52:54;11.27;;;5.30;;
75261;SDS011;63859;51.064;4.580;2024-01-15T03:55:20;13.97;;;5.57;;
75261;SDS011;63859;51.064;4.580;2024-01-15T03:57:45;12.90;;;5.67;;
75261;SDS011;63859;51.064;4.580;2024-01-15T04:00:11;9.50;;;5.90;;
75261;SDS011;63859;51.064;4.580;2024-01-15T04:02:37;12.50;;;5.97;;
75261;SDS011;63859;51.064;4.580;2024-01-15T04:05:03;15.90;;;5.73;;
75261;SDS011;63859;51.064;4.580;2024-01-15T04:07:29;7.67;;;5.47;;
75261;SDS011;63859;51.064;4.580;2024-01-15T04:09:54;16.87;;;5.40;;
75261;SDS011;63859;51.064;4.580;2024-01-15T04:12:20;11.30;;;5.83;;
75261;SDS011;63859;51.064;4.580;2024-01-15T04:14:46;12.87;;;6.10;;
75261;SDS011;63859;51.064;4.580;2024-01-15T04:17:11;13.40;;;5.60;;
75261;SDS011;63859;51.064;4.580;2024-01-15T04:19:37;10.70;;;5.53;;
75261;SDS011;63859;51.064;4.580;2024-01-15T04:22:03;8.27;;;5.33;;
75261;SDS011;63859;51.064;4.580;2024-01-15T04:24:28;10.73;;;5.80;;
75261;SDS011;63859;51.064;4.580;2024-01-15T04:26:56;10.87;;;6.13;;
75261;SDS011;63859;51.064;4.580;2024-01-15T04:29:22;12.43;;;5.37;;
75261;SDS011;63859;51.064;4.580;2024-01-15T04:31:48;13.47;;;6.20;;
75261;SDS011;63859;51.064;4.580;2024-01-15T04:34:14;14.33;;;6.10;;
75261;SDS011;63859;51.064;4.580;2024-01-15T04:36:39;10.87;;;5.90;;
75261;SDS011;63859;51.064;4.580;2024-01-15T04:39:08;11.70;;;6.17;;
75261;SDS011;63859;51.064;4.580;2024-01-15T04:41:36;14.70;;;6.27;;
75261;SDS011;63859;51.064;4.580;2024-01-15T04:44:02;12.17;;;5.77;;
75261;SDS011;63859;51.064;4.580;2024-01-15T04:46:28;10.10;;;6.83;;
75261;SDS011;63859;51.064;4.580;2024-01-15T04:48:53;14.00;;;5.60;;
75261;SDS011;63859;51.064;4.580;2024-01-15T04:51:19;10.97;;;6.07;;
75261;SDS011;63859;51.064;4.580;2024-01-15T04:53:44;9.87;;;5.57;;
75261;SDS011;63859;51.064;4.580;2024-01-15T04:56:10;10.73;;;5.80;;
75261;SDS011;63859;51.064;4.580;2024-01-15T04:58:36;13.20;;;6.20;;
75261;SDS011;63859;51.064;4.580;2024-01-15T05:01:01;11.27;;;6.00;;
75261;SDS011;63859;51.064;4.580;2024-01-15T05:03:27;15.00;;;5.70;;
75261;SDS011;63859;51.064;4.580;2024-01-15T05:05:53;16.80;;;6.93;;
75261;SDS011;63859;51.064;4.580;2024-01-15T05:08:19;12.20;;;5.93;;
75261;SDS011;63859;51.064;4.580;2024-01-15T05:10:44;9.60;;;5.83;;
75261;SDS011;63859;51.064;4.580;2024-01-15T05:13:10;12.83;;;6.13;;
75261;SDS011;63859;51.064;4.580;2024-01-15T05:15:36;13.73;;;6.63;;
75261;SDS011;63859;51.064;4.580;2024-01-15T05:18:02;13.77;;;6.50;;
75261;SDS011;63859;51.064;4.580;2024-01-15T05:20:27;10.40;;;5.67;;
75261;SDS011;63859;51.064;4.580;2024-01-15T05:22:53;10.50;;;6.00;;
75261;SDS011;63859;51.064;4.580;2024-01-15T05:25:19;12.40;;;5.57;;
75261;SDS011;63859;51.064;4.580;2024-01-15T05:27:44;10.70;;;5.60;;
75261;SDS011;63859;51.064;4.580;2024-01-15T05:30:10;9.90;;;5.13;;
75261;SDS011;63859;51.064;4.580;2024-01-15T05:32:36;10.07;;;5.03;;
75261;SDS011;63859;51.064;4.580;2024-01-15T05:35:02;12.27;;;5.23;;
75261;SDS011;63859;51.064;4.580;2024-01-15T05:37:28;8.90;;;4.73;;
75261;SDS011;63859;51.064;4.580;2024-01-15T05:39:53;10.40;;;5.10;;
75261;SDS011;63859;51.064;4.580;2024-01-15T05:42:19;11.93;;;5.13;;
75261;SDS011;63859;51.064;4.580;2024-01-15T05:44:45;15.93;;;5.03;;
75261;SDS011;63859;51.064;4.580;2024-01-15T05:47:10;14.37;;;4.97;;
75261;SDS011;63859;51.064;4.580;2024-01-15T05:49:36;11.30;;;4.93;;
75261;SDS011;63859;51.064;4.580;2024-01-15T05:52:02;10.07;;;4.40;;
75261;SDS011;63859;51.064;4.580;2024-01-15T05:54:27;9.20;;;4.43;;
75261;SDS011;63859;51.064;4.580;2024-01-15T05:56:53;7.73;;;3.70;;
75261;SDS011;63859;51.064;4.580;2024-01-15T05:59:19;8.87;;;4.23;;
75261;SDS011;63859;51.064;4.580;2024-01-15T06:01:44;8.70;;;3.17;;
75261;SDS011;63859;51.064;4.580;2024-01-15T06:04:10;6.53;;;3.70;;
75261;SDS011;63859;51.064;4.580;2024-01-15T06:06:35;13.17;;;3.67;;
75261;SDS011;63859;51.064;4.580;2024-01-15T06:09:01;13.50;;;3.70;;
75261;SDS011;63859;51.064;4.580;2024-01-15T06:11:33;7.50;;;3.70;;
75261;SDS011;63859;51.064;4.580;2024-01-15T06:13:59;11.97;;;3.20;;
75261;SDS011;63859;51.064;4.580;2024-01-15T06:16:27;11.17;;;3.37;;
75261;SDS011;63859;51.064;4.580;2024-01-15T06:18:53;9.27;;;3.10;;
75261;SDS011;63859;51.064;4.580;2024-01-15T06:21:19;11.93;;;3.57;;
75261;SDS011;63859;51.064;4.580;2024-01-15T06:23:45;10.40;;;3.43;;
75261;SDS011;63859;51.064;4.580;2024-01-15T06:26:11;10.13;;;3.20;;
75261;SDS011;63859;51.064;4.580;2024-01-15T06:28:37;5.70;;;2.57;;
75261;SDS011;63859;51.064;4.580;2024-01-15T06:31:03;9.50;;;3.10;;
75261;SDS011;63859;51.064;4.580;2024-01-15T06:33:29;14.17;;;3.30;;
75261;SDS011;63859;51.064;4.580;2024-01-15T06:35:54;10.63;;;4.13;;
75261;SDS011;63859;51.064;4.580;2024-01-15T06:38:21;9.57;;;2.70;;
75261;SDS011;63859;51.064;4.580;2024-01-15T06:40:47;10.43;;;2.70;;
75261;SDS011;63859;51.064;4.580;2024-01-15T06:43:13;8.10;;;2.67;;
75261;SDS011;63859;51.064;4.580;2024-01-15T06:45:39;9.00;;;2.90;;
75261;SDS011;63859;51.064;4.580;2024-01-15T06:48:05;6.77;;;2.33;;
75261;SDS011;63859;51.064;4.580;2024-01-15T06:50:32;9.47;;;2.70;;
75261;SDS011;63859;51.064;4.580;2024-01-15T06:52:58;9.10;;;2.97;;
75261;SDS011;63859;51.064;4.580;2024-01-15T06:55:23;7.47;;;2.70;;
75261;SDS011;63859;51.064;4.580;2024-01-15T06:57:50;17.07;;;3.23;;
75261;SDS011;63859;51.064;4.580;2024-01-15T07:00:16;6.63;;;2.60;;
75261;SDS011;63859;51.064;4.580;2024-01-15T07:02:44;8.37;;;2.40;;
75261;SDS011;63859;51.064;4.580;2024-01-15T07:05:10;8.73;;;2.50;;
75261;SDS011;63859;51.064;4.580;2024-01-15T07:07:36;6.40;;;3.10;;
75261;SDS011;63859;51.064;4.580;2024-01-15T07:10:02;6.70;;;3.17;;
75261;SDS011;63859;51.064;4.580;2024-01-15T07:12:29;7.43;;;2.93;;
75261;SDS011;63859;51.064;4.580;2024-01-15T07:14:55;10.70;;;3.10;;
75261;SDS011;63859;51.064;4.580;2024-01-15T07:17:21;12.73;;;3.13;;
75261;SDS011;63859;51.064;4.580;2024-01-15T07:19:47;6.00;;;2.30;;
75261;SDS011;63859;51.064;4.580;2024-01-15T07:22:13;8.67;;;3.23;;
75261;SDS011;63859;51.064;4.580;2024-01-15T07:24:40;7.17;;;2.83;;
75261;SDS011;63859;51.064;4.580;2024-01-15T07:27:05;11.93;;;3.17;;
75261;SDS011;63859;51.064;4.580;2024-01-15T07:29:31;8.37;;;3.03;;
75261;SDS011;63859;51.064;4.580;2024-01-15T07:31:58;10.93;;;2.90;;
75261;SDS011;63859;51.064;4.580;2024-01-15T07:34:24;10.77;;;3.20;;
75261;SDS011;63859;51.064;4.580;2024-01-15T07:36:49;7.47;;;2.93;;
75261;SDS011;63859;51.064;4.580;2024-01-15T07:39:15;10.00;;;2.73;;
75261;SDS011;63859;51.064;4.580;2024-01-15T07:41:41;17.67;;;3.50;;
75261;SDS011;63859;51.064;4.580;2024-01-15T07:44:07;8.10;;;3.23;;
75261;SDS011;63859;51.064;4.580;2024-01-15T07:46:33;14.03;;;3.33;;
75261;SDS011;63859;51.064;4.580;2024-01-15T07:48:58;7.03;;;3.37;;
75261;SDS011;63859;51.064;4.580;2024-01-15T07:51:24;10.13;;;3.30;;
75261;SDS011;63859;51.064;4.580;2024-01-15T07:53:50;5.97;;;2.90;;
75261;SDS011;63859;51.064;4.580;2024-01-15T07:56:18;10.93;;;3.63;;
75261;SDS011;63859;51.064;4.580;2024-01-15T07:58:44;8.30;;;2.80;;
75261;SDS011;63859;51.064;4.580;2024-01-15T08:01:10;6.13;;;2.80;;
75261;SDS011;63859;51.064;4.580;2024-01-15T08:03:35;7.17;;;3.13;;
75261;SDS011;63859;51.064;4.580;2024-01-15T08:06:01;12.67;;;3.77;;
75261;SDS011;63859;51.064;4.580;2024-01-15T08:08:27;11.90;;;3.17;;
75261;SDS011;63859;51.064;4.580;2024-01-15T08:10:53;10.33;;;3.70;;
75261;SDS011;63859;51.064;4.580;2024-01-15T08:13:18;8.47;;;2.87;;
75261;SDS011;63859;51.064;4.580;2024-01-15T08:15:45;8.30;;;3.20;;
75261;SDS011;63859;51.064;4.580;2024-01-15T08:18:11;13.33;;;3.97;;
75261;SDS011;63859;51.064;4.580;2024-01-15T08:20:37;9.63;;;3.27;;
75261;SDS011;63859;51.064;4.580;2024-01-15T08:23:03;11.50;;;3.63;;
75261;SDS011;63859;51.064;4.580;2024-01-15T08:25:29;6.47;;;2.87;;
75261;SDS011;63859;51.064;4.580;2024-01-15T08:27:56;11.47;;;3.17;;
75261;SDS011;63859;51.064;4.580;2024-01-15T08:30:22;9.10;;;3.40;;
75261;SDS011;63859;51.064;4.580;2024-01-15T08:32:52;10.70;;;3.43;;
75261;SDS011;63859;51.064;4.580;2024-01-15T08:35:21;9.20;;;3.00;;
75261;SDS011;63859;51.064;4.580;2024-01-15T08:37:51;15.43;;;3.80;;
75261;SDS011;63859;51.064;4.580;2024-01-15T08:40:17;13.40;;;3.70;;
75261;SDS011;63859;51.064;4.580;2024-01-15T08:42:43;7.83;;;3.57;;
75261;SDS011;63859;51.064;4.580;2024-01-15T08:45:10;11.27;;;3.83;;
75261;SDS011;63859;51.064;4.580;2024-01-15T08:47:36;13.17;;;3.60;;
75261;SDS011;63859;51.064;4.580;2024-01-15T08:50:02;9.70;;;3.23;;
75261;SDS011;63859;51.064;4.580;2024-01-15T08:52:28;11.83;;;3.23;;
75261;SDS011;63859;51.064;4.580;2024-01-15T08:54:56;13.07;;;3.57;;
75261;SDS011;63859;51.064;4.580;2024-01-15T08:57:22;13.43;;;3.60;;
75261;SDS011;63859;51.064;4.580;2024-01-15T08:59:48;7.47;;;3.10;;
75261;SDS011;63859;51.064;4.580;2024-01-15T09:02:14;5.97;;;3.03;;
75261;SDS011;63859;51.064;4.580;2024-01-15T09:04:40;12.23;;;3.27;;
75261;SDS011;63859;51.064;4.580;2024-01-15T09:07:07;11.57;;;3.43;;
75261;SDS011;63859;51.064;4.580;2024-01-15T09:09:33;9.20;;;2.70;;
75261;SDS011;63859;51.064;4.580;2024-01-15T09:12:00;10.50;;;3.20;;
75261;SDS011;63859;51.064;4.580;2024-01-15T09:14:25;6.53;;;2.67;;
75261;SDS011;63859;51.064;4.580;2024-01-15T09:16:52;11.57;;;3.67;;
75261;SDS011;63859;51.064;4.580;2024-01-15T09:19:18;10.50;;;3.40;;
75261;SDS011;63859;51.064;4.580;2024-01-15T09:21:44;6.53;;;2.70;;
75261;SDS011;63859;51.064;4.580;2024-01-15T09:24:10;13.60;;;2.90;;
75261;SDS011;63859;51.064;4.580;2024-01-15T09:26:36;12.40;;;3.17;;
75261;SDS011;63859;51.064;4.580;2024-01-15T09:29:01;8.43;;;2.70;;
75261;SDS011;63859;51.064;4.580;2024-01-15T09:31:28;7.17;;;3.37;;
75261;SDS011;63859;51.064;4.580;2024-01-15T09:33:53;15.87;;;3.07;;
75261;SDS011;63859;51.064;4.580;2024-01-15T09:36:24;4.10;;;2.50;;
75261;SDS011;63859;51.064;4.580;2024-01-15T09:38:50;11.70;;;2.47;;
75261;SDS011;63859;51.064;4.580;2024-01-15T09:41:16;7.60;;;2.60;;
75261;SDS011;63859;51.064;4.580;2024-01-15T09:43:42;11.70;;;3.30;;
75261;SDS011;63859;51.064;4.580;2024-01-15T09:46:08;11.50;;;2.80;;
75261;SDS011;63859;51.064;4.580;2024-01-15T09:48:34;15.33;;;2.90;;
75261;SDS011;63859;51.064;4.580;2024-01-15T09:51:01;6.30;;;2.70;;
75261;SDS011;63859;51.064;4.580;2024-01-15T09:53:27;4.70;;;2.07;;
75261;SDS011;63859;51.064;4.580;2024-01-15T09:55:53;11.20;;;3.07;;
75261;SDS011;63859;51.064;4.580;2024-01-15T09:58:18;8.33;;;3.03;;
75261;SDS011;63859;51.064;4.580;2024-01-15T10:00:44;13.37;;;3.23;;
75261;SDS011;63859;51.064;4.580;2024-01-15T10:03:12;11.13;;;2.83;;
75261;SDS011;63859;51.064;4.580;2024-01-15T10:05:38;6.93;;;2.37;;
75261;SDS011;63859;51.064;4.580;2024-01-15T10:08:04;5.37;;;2.53;;
75261;SDS011;63859;51.064;4.580;2024-01-15T10:10:30;10.17;;;2.80;;
75261;SDS011;63859;51.064;4.580;2024-01-15T10:12:56;10.53;;;2.63;;
75261;SDS011;63859;51.064;4.580;2024-01-15T10:15:27;6.80;;;2.47;;
75261;SDS011;63859;51.064;4.580;2024-01-15T10:17:53;9.77;;;2.60;;
75261;SDS011;63859;51.064;4.580;2024-01-15T10:20:19;8.63;;;2.57;;
75261;SDS011;63859;51.064;4.580;2024-01-15T10:22:47;7.47;;;2.60;;
75261;SDS011;63859;51.064;4.580;2024-01-15T10:25:13;7.57;;;2.60;;
75261;SDS011;63859;51.064;4.580;2024-01-15T10:27:42;9.00;;;2.40;;
75261;SDS011;63859;51.064;4.580;2024-01-15T10:30:09;8.27;;;2.57;;
75261;SDS011;63859;51.064;4.580;2024-01-15T10:32:35;4.87;;;2.37;;
75261;SDS011;63859;51.064;4.580;2024-01-15T10:35:01;7.53;;;2.23;;
75261;SDS011;63859;51.064;4.580;2024-01-15T10:37:30;8.87;;;2.60;;
75261;SDS011;63859;51.064;4.580;2024-01-15T10:39:58;5.83;;;2.10;;
75261;SDS011;63859;51.064;4.580;2024-01-15T10:42:26;11.63;;;2.97;;
75261;SDS011;63859;51.064;4.580;2024-01-15T10:44:51;10.53;;;2.80;;
75261;SDS011;63859;51.064;4.580;2024-01-15T10:47:17;13.83;;;2.90;;
75261;SDS011;63859;51.064;4.580;2024-01-15T10:49:44;10.07;;;3.03;;
75261;SDS011;63859;51.064;4.580;2024-01-15T10:52:11;8.93;;;2.40;;
75261;SDS011;63859;51.064;4.580;2024-01-15T10:54:37;8.57;;;2.30;;
75261;SDS011;63859;51.064;4.580;2024-01-15T10:57:03;12.07;;;2.27;;
75261;SDS011;63859;51.064;4.580;2024-01-15T10:59:30;9.70;;;2.13;;
75261;SDS011;63859;51.064;4.580;2024-01-15T11:01:57;4.57;;;1.93;;
75261;SDS011;63859;51.064;4.580;2024-01-15T11:04:24;10.30;;;2.40;;
75261;SDS011;63859;51.064;4.580;2024-01-15T11:06:53;12.43;;;2.10;;
75261;SDS011;63859;51.064;4.580;2024-01-15T11:09:20;7.10;;;2.10;;
75261;SDS011;63859;51.064;4.580;2024-01-15T11:11:46;12.43;;;2.20;;
75261;SDS011;63859;51.064;4.580;2024-01-15T11:17:08;10.87;;;2.67;;
75261;SDS011;63859;51.064;4.580;2024-01-15T11:19:35;3.20;;;2.00;;
75261;SDS011;63859;51.064;4.580;2024-01-15T11:24:55;10.00;;;2.27;;
75261;SDS011;63859;51.064;4.580;2024-01-15T11:30:11;7.07;;;2.03;;
75261;SDS011;63859;51.064;4.580;2024-01-15T11:32:37;8.37;;;1.83;;
75261;SDS011;63859;51.064;4.580;2024-01-15T11:35:07;6.30;;;2.80;;
75261;SDS011;63859;51.064;4.580;2024-01-15T11:40:23;11.00;;;2.33;;
75261;SDS011;63859;51.064;4.580;2024-01-15T11:42:49;6.60;;;2.00;;
75261;SDS011;63859;51.064;4.580;2024-01-15T11:45:18;7.57;;;1.80;;
75261;SDS011;63859;51.064;4.580;2024-01-15T11:50:38;3.87;;;2.00;;
75261;SDS011;63859;51.064;4.580;2024-01-15T11:53:13;8.77;;;1.80;;
75261;SDS011;63859;51.064;4.580;2024-01-15T11:55:48;7.07;;;2.10;;
75261;SDS011;63859;51.064;4.580;2024-01-15T11:58:17;5.63;;;1.90;;
75261;SDS011;63859;51.064;4.580;2024-01-15T12:00:44;11.10;;;2.20;;
75261;SDS011;63859;51.064;4.580;2024-01-15T12:03:12;5.90;;;1.70;;
75261;SDS011;63859;51.064;4.580;2024-01-15T12:05:38;3.23;;;1.93;;
75261;SDS011;63859;51.064;4.580;2024-01-15T12:08:04;10.40;;;2.57;;
75261;SDS011;63859;51.064;4.580;2024-01-15T12:10:36;10.47;;;2.80;;
75261;SDS011;63859;51.064;4.580;2024-01-15T12:15:38;4.80;;;2.03;;
75261;SDS011;63859;51.064;4.580;2024-01-15T12:18:08;7.73;;;2.00;;
75261;SDS011;63859;51.064;4.580;2024-01-15T12:20:35;12.90;;;2.33;;
75261;SDS011;63859;51.064;4.580;2024-01-15T12:23:01;11.63;;;2.53;;
75261;SDS011;63859;51.064;4.580;2024-01-15T12:25:31;10.57;;;2.37;;
75261;SDS011;63859;51.064;4.580;2024-01-15T12:27:57;7.10;;;2.43;;
75261;SDS011;63859;51.064;4.580;2024-01-15T12:30:28;7.00;;;2.30;;
75261;SDS011;63859;51.064;4.580;2024-01-15T12:32:54;12.30;;;2.37;;
75261;SDS011;63859;51.064;4.580;2024-01-15T12:35:20;8.90;;;2.27;;
75261;SDS011;63859;51.064;4.580;2024-01-15T12:37:48;12.93;;;2.23;;
75261;SDS011;63859;51.064;4.580;2024-01-15T12:40:18;9.43;;;2.33;;
75261;SDS011;63859;51.064;4.580;2024-01-15T12:42:44;7.23;;;2.40;;
75261;SDS011;63859;51.064;4.580;2024-01-15T12:45:11;3.20;;;1.60;;
75261;SDS011;63859;51.064;4.580;2024-01-15T12:47:41;3.43;;;1.37;;
75261;SDS011;63859;51.064;4.580;2024-01-15T12:50:10;2.03;;;1.50;;
75261;SDS011;63859;51.064;4.580;2024-01-15T12:52:37;3.77;;;1.60;;
75261;SDS011;63859;51.064;4.580;2024-01-15T12:55:05;3.20;;;1.50;;
75261;SDS011;63859;51.064;4.580;2024-01-15T12:57:32;2.83;;;1.40;;
75261;SDS011;63859;51.064;4.580;2024-01-15T12:59:59;4.80;;;1.60;;
75261;SDS011;63859;51.064;4.580;2024-01-15T13:02:25;2.17;;;1.80;;
75261;SDS011;63859;51.064;4.580;2024-01-15T13:04:51;2.97;;;1.50;;
75261;SDS011;63859;51.064;4.580;2024-01-15T13:07:19;2.93;;;1.70;;
75261;SDS011;63859;51.064;4.580;2024-01-15T13:09:44;1.53;;;1.43;;
75261;SDS011;63859;51.064;4.580;2024-01-15T13:12:10;3.67;;;1.57;;
75261;SDS011;63859;51.064;4.580;2024-01-15T13:14:36;1.90;;;1.43;;
75261;SDS011;63859;51.064;4.580;2024-01-15T13:17:02;5.63;;;1.90;;
75261;SDS011;63859;51.064;4.580;2024-01-15T13:19:28;1.97;;;1.10;;
75261;SDS011;63859;51.064;4.580;2024-01-15T13:21:54;1.10;;;1.00;;
75261;SDS011;63859;51.064;4.580;2024-01-15T13:24:21;4.80;;;1.20;;
75261;SDS011;63859;51.064;4.580;2024-01-15T13:26:47;4.27;;;1.23;;
75261;SDS011;63859;51.064;4.580;2024-01-15T13:29:13;4.60;;;1.20;;
75261;SDS011;63859;51.064;4.580;2024-01-15T13:31:40;4.03;;;1.37;;
75261;SDS011;63859;51.064;4.580;2024-01-15T13:34:05;2.97;;;1.57;;
75261;SDS011;63859;51.064;4.580;2024-01-15T13:36:32;1.70;;;1.00;;
75261;SDS011;63859;51.064;4.580;2024-01-15T13:38:58;1.73;;;1.20;;
75261;SDS011;63859;51.064;4.580;2024-01-15T13:41:24;0.90;;;0.90;;
75261;SDS011;63859;51.064;4.580;2024-01-15T13:43:54;1.93;;;1.33;;
75261;SDS011;63859;51.064;4.580;2024-01-15T13:46:24;1.63;;;1.20;;
75261;SDS011;63859;51.064;4.580;2024-01-15T13:48:53;3.43;;;1.30;;
75261;SDS011;63859;51.064;4.580;2024-01-15T13:51:19;1.87;;;1.20;;
75261;SDS011;63859;51.064;4.580;2024-01-15T13:53:48;4.40;;;1.33;;
75261;SDS011;63859;51.064;4.580;2024-01-15T13:56:15;2.60;;;1.23;;
75261;SDS011;63859;51.064;4.580;2024-01-15T13:58:41;3.63;;;1.30;;
75261;SDS011;63859;51.064;4.580;2024-01-15T14:01:07;2.37;;;1.10;;
75261;SDS011;63859;51.064;4.580;2024-01-15T14:03:34;5.23;;;1.77;;
75261;SDS011;63859;51.064;4.580;2024-01-15T14:06:00;4.73;;;1.40;;
75261;SDS011;63859;51.064;4.580;2024-01-15T14:08:28;2.70;;;1.87;;
75261;SDS011;63859;51.064;4.580;2024-01-15T14:10:53;6.23;;;1.50;;
75261;SDS011;63859;51.064;4.580;2024-01-15T14:13:21;4.50;;;1.40;;
75261;SDS011;63859;51.064;4.580;2024-01-15T14:15:47;6.43;;;1.60;;
75261;SDS011;63859;51.064;4.580;2024-01-15T14:18:15;5.43;;;1.60;;
75261;SDS011;63859;51.064;4.580;2024-01-15T14:20:41;4.07;;;1.30;;
75261;SDS011;63859;51.064;4.580;2024-01-15T14:23:07;3.27;;;1.50;;
75261;SDS011;63859;51.064;4.580;2024-01-15T14:25:33;6.67;;;2.00;;
75261;SDS011;63859;51.064;4.580;2024-01-15T14:27:59;4.33;;;1.50;;
75261;SDS011;63859;51.064;4.580;2024-01-15T14:30:25;1.97;;;1.50;;
75261;SDS011;63859;51.064;4.580;2024-01-15T14:32:50;11.00;;;2.27;;
75261;SDS011;63859;51.064;4.580;2024-01-15T14:35:16;4.40;;;2.33;;
75261;SDS011;63859;51.064;4.580;2024-01-15T14:37:42;4.03;;;2.40;;
75261;SDS011;63859;51.064;4.580;2024-01-15T14:40:08;5.27;;;2.80;;
75261;SDS011;63859;51.064;4.580;2024-01-15T14:42:35;7.63;;;3.53;;
75261;SDS011;63859;51.064;4.580;2024-01-15T14:45:02;11.03;;;4.70;;
75261;SDS011;63859;51.064;4.580;2024-01-15T14:47:28;5.90;;;3.43;;
75261;SDS011;63859;51.064;4.580;2024-01-15T14:49:54;11.33;;;3.73;;
75261;SDS011;63859;51.064;4.580;2024-01-15T14:52:22;8.10;;;3.33;;